createdAt,value
2017-12-06T00:00:57.506Z,5.69
2017-12-06T00:03:32.037Z,5.68
2017-12-06T00:06:06.470Z,5.64
2017-12-06T00:08:40.967Z,5.67
2017-12-06T00:11:15.354Z,5.65
2017-12-06T00:16:54.769Z,5.64
2017-12-06T00:19:29.205Z,5.66
2017-12-06T00:22:03.530Z,5.63
2017-12-06T00:24:37.826Z,5.66
2017-12-06T00:27:12.209Z,5.65
2017-12-06T00:29:46.885Z,5.63
2017-12-06T00:32:21.241Z,5.62
2017-12-06T00:34:55.831Z,5.65
2017-12-06T00:37:30.301Z,5.62
2017-12-06T00:40:08.768Z,5.64
2017-12-06T00:42:43.148Z,5.69
2017-12-06T00:45:20.868Z,5.65
2017-12-06T00:47:55.429Z,5.65
2017-12-06T00:50:30.546Z,5.70
2017-12-06T00:53:04.994Z,5.72
2017-12-06T00:55:39.597Z,5.68
2017-12-06T00:58:14.077Z,5.71
2017-12-06T01:00:47.914Z,5.73
2017-12-06T01:03:22.307Z,5.75
2017-12-06T01:05:56.799Z,5.72
2017-12-06T01:08:31.265Z,5.76
2017-12-06T01:11:05.726Z,5.73
2017-12-06T01:13:40.162Z,5.74
2017-12-06T01:16:14.542Z,5.76
2017-12-06T01:18:49.168Z,5.74
2017-12-06T01:21:23.542Z,5.85
2017-12-06T01:23:58.078Z,5.81
2017-12-06T01:26:32.538Z,5.78
2017-12-06T01:29:06.897Z,5.83
2017-12-06T01:31:41.270Z,5.77
2017-12-06T01:34:16.618Z,5.81
2017-12-06T01:36:51.186Z,5.82
2017-12-06T01:39:25.789Z,5.84
2017-12-06T01:42:00.181Z,5.61
2017-12-06T01:44:34.586Z,5.75
2017-12-06T01:47:08.770Z,5.75
2017-12-06T01:49:43.261Z,5.73
2017-12-06T01:52:17.654Z,5.71
2017-12-06T01:54:52.046Z,5.71
2017-12-06T01:57:25.968Z,5.75
2017-12-06T02:00:00.514Z,5.68
2017-12-06T02:02:35.093Z,5.69
2017-12-06T02:05:10.194Z,5.69
2017-12-06T02:07:44.581Z,5.68
2017-12-06T02:10:19.057Z,5.66
2017-12-06T02:12:53.494Z,5.66
2017-12-06T02:15:28.017Z,5.66
2017-12-06T02:18:02.541Z,5.68
2017-12-06T02:20:36.566Z,5.72
2017-12-06T02:23:11.016Z,5.73
2017-12-06T02:25:45.102Z,5.76
2017-12-06T02:28:19.185Z,5.75
2017-12-06T02:30:53.620Z,5.75
2017-12-06T02:33:28.078Z,5.71
2017-12-06T02:36:02.558Z,5.69
2017-12-06T02:38:36.998Z,5.66
2017-12-06T02:41:22.479Z,5.67
2017-12-06T02:44:08.291Z,5.65
2017-12-06T02:46:42.502Z,5.65
2017-12-06T02:49:16.935Z,5.67
2017-12-06T02:51:51.442Z,5.68
2017-12-06T02:54:26.018Z,5.73
2017-12-06T02:57:00.456Z,5.77
2017-12-06T02:59:34.978Z,5.80
2017-12-06T03:02:09.430Z,5.60
2017-12-06T03:04:43.998Z,5.68
2017-12-06T03:07:18.358Z,5.68
2017-12-06T03:09:52.870Z,5.65
2017-12-06T03:12:27.261Z,5.68
2017-12-06T03:15:01.775Z,5.66
2017-12-06T03:17:36.226Z,5.67
2017-12-06T03:20:10.738Z,5.69
2017-12-06T03:22:45.330Z,5.65
2017-12-06T03:25:19.817Z,5.66
2017-12-06T03:27:54.404Z,5.64
2017-12-06T03:30:29.044Z,5.66
2017-12-06T03:33:03.494Z,5.67
2017-12-06T03:35:38.006Z,5.66
2017-12-06T03:38:12.603Z,5.62
2017-12-06T03:40:47.015Z,5.63
2017-12-06T03:43:21.677Z,5.61
2017-12-06T03:45:56.052Z,5.60
2017-12-06T03:48:30.513Z,5.63
2017-12-06T03:51:04.978Z,5.60
2017-12-06T03:53:39.474Z,5.58
2017-12-06T03:56:14.006Z,5.61
2017-12-06T03:58:48.318Z,5.58
2017-12-06T04:01:22.786Z,5.57
2017-12-06T04:03:57.325Z,5.58
2017-12-06T04:06:31.790Z,5.63
2017-12-06T04:09:06.337Z,5.56
2017-12-06T04:11:40.830Z,5.60
2017-12-06T04:14:15.210Z,5.60
2017-12-06T04:16:49.610Z,5.59
2017-12-06T04:19:23.815Z,5.59
2017-12-06T04:21:58.298Z,5.61
2017-12-06T04:24:33.028Z,5.56
2017-12-06T04:27:07.470Z,5.54
2017-12-06T04:29:41.880Z,5.56
2017-12-06T04:32:16.340Z,5.59
2017-12-06T04:34:50.766Z,5.59
2017-12-06T04:37:25.134Z,5.39
2017-12-06T04:39:59.741Z,5.53
2017-12-06T04:42:34.142Z,5.55
2017-12-06T04:45:09.250Z,5.55
2017-12-06T04:47:43.809Z,5.57
2017-12-06T04:50:18.180Z,5.52
2017-12-06T04:52:52.615Z,5.50
2017-12-06T04:55:27.097Z,5.50
2017-12-06T04:58:01.537Z,5.52
2017-12-06T05:00:35.930Z,5.49
2017-12-06T05:03:10.282Z,5.50
2017-12-06T05:05:44.813Z,5.50
2017-12-06T05:08:19.306Z,5.50
2017-12-06T05:10:53.730Z,5.50
2017-12-06T05:13:28.328Z,5.49
2017-12-06T05:16:02.826Z,5.49
2017-12-06T05:18:37.262Z,5.52
2017-12-06T05:21:11.732Z,5.49
2017-12-06T05:23:46.388Z,5.48
2017-12-06T05:26:20.816Z,5.48
2017-12-06T05:28:55.412Z,5.47
2017-12-06T05:31:29.786Z,5.46
2017-12-06T05:34:04.444Z,5.46
2017-12-06T05:36:39.006Z,5.45
2017-12-06T05:39:13.381Z,5.50
2017-12-06T05:41:47.878Z,5.47
2017-12-06T05:44:22.386Z,5.46
2017-12-06T05:46:56.886Z,5.48
2017-12-06T05:49:31.414Z,5.46
2017-12-06T05:52:05.771Z,5.46
2017-12-06T05:54:40.363Z,5.46
2017-12-06T05:57:14.806Z,5.47
2017-12-06T05:59:49.266Z,5.49
2017-12-06T06:02:23.472Z,5.46
2017-12-06T06:04:58.248Z,5.53
2017-12-06T06:07:32.632Z,5.53
2017-12-06T06:10:07.106Z,5.52
2017-12-06T06:12:41.631Z,5.56
2017-12-06T06:15:16.025Z,5.52
2017-12-06T06:17:50.541Z,5.56
2017-12-06T06:20:24.679Z,5.53
2017-12-06T06:22:59.190Z,5.58
2017-12-06T06:25:33.689Z,5.54
2017-12-06T06:28:09.348Z,5.53
2017-12-06T06:30:43.818Z,5.53
2017-12-06T06:33:18.306Z,5.55
2017-12-06T06:35:52.698Z,5.53
2017-12-06T06:38:27.226Z,5.59
2017-12-06T06:41:01.585Z,5.57
2017-12-06T06:43:36.954Z,5.56
2017-12-06T06:46:11.323Z,5.57
2017-12-06T06:48:45.810Z,5.55
2017-12-06T06:51:20.270Z,5.56
2017-12-06T06:53:54.752Z,5.58
2017-12-06T06:56:29.114Z,5.59
2017-12-06T06:59:03.537Z,5.58
2017-12-06T07:01:38.026Z,5.62
2017-12-06T07:04:12.805Z,5.56
2017-12-06T07:06:47.448Z,5.57
2017-12-06T07:09:21.826Z,5.62
2017-12-06T07:11:56.918Z,5.59
2017-12-06T07:14:31.320Z,5.59
2017-12-06T07:17:05.684Z,5.59
2017-12-06T07:19:45.579Z,5.61
2017-12-06T07:22:20.086Z,5.58
2017-12-06T07:24:54.618Z,5.61
2017-12-06T07:27:28.979Z,5.64
2017-12-06T07:30:04.105Z,5.65
2017-12-06T07:32:39.884Z,5.62
2017-12-06T07:35:14.303Z,5.58
2017-12-06T07:37:49.508Z,5.68
2017-12-06T07:40:24.692Z,5.65
2017-12-06T07:42:59.233Z,5.63
2017-12-06T07:45:33.692Z,5.65
2017-12-06T07:48:08.077Z,5.69
2017-12-06T07:50:42.526Z,5.69
2017-12-06T07:53:16.955Z,5.64
2017-12-06T07:55:51.359Z,5.72
2017-12-06T07:58:31.202Z,5.70
2017-12-06T08:01:05.741Z,5.71
2017-12-06T08:03:40.238Z,5.69
2017-12-06T08:06:14.606Z,5.64
2017-12-06T08:08:48.958Z,5.73
2017-12-06T08:11:23.432Z,5.71
2017-12-06T08:13:57.933Z,5.69
2017-12-06T08:16:32.349Z,5.71
2017-12-06T08:19:06.899Z,5.74
2017-12-06T08:21:41.365Z,5.72
2017-12-06T08:24:16.802Z,5.78
2017-12-06T08:26:51.565Z,5.79
2017-12-06T08:29:26.711Z,5.74
2017-12-06T08:32:01.428Z,5.80
2017-12-06T08:34:36.718Z,5.79
2017-12-06T08:37:11.204Z,5.79
2017-12-06T08:39:45.415Z,5.80
2017-12-06T08:42:19.646Z,5.82
2017-12-06T08:44:53.840Z,5.94
2017-12-06T08:47:29.005Z,5.92
2017-12-06T08:50:03.510Z,5.94
2017-12-06T08:52:38.186Z,5.85
2017-12-06T08:55:12.717Z,5.92
2017-12-06T08:57:46.890Z,5.92
2017-12-06T09:00:21.357Z,5.93
2017-12-06T09:02:56.039Z,5.93
2017-12-06T09:05:30.670Z,6.04
2017-12-06T09:08:05.625Z,6.04
2017-12-06T09:10:40.092Z,6.16
2017-12-06T09:13:14.204Z,6.06
2017-12-06T09:15:48.602Z,6.10
2017-12-06T09:18:23.144Z,6.15
2017-12-06T09:20:57.651Z,6.13
2017-12-06T09:23:32.157Z,6.07
2017-12-06T09:26:06.222Z,6.11
2017-12-06T09:28:40.742Z,6.17
2017-12-06T09:31:16.605Z,6.18
2017-12-06T09:33:51.714Z,6.15
2017-12-06T09:36:27.082Z,6.21
2017-12-06T09:39:01.762Z,6.25
2017-12-06T09:41:36.177Z,6.26
2017-12-06T09:44:10.657Z,6.22
2017-12-06T09:46:45.113Z,6.35
2017-12-06T09:49:19.598Z,6.25
2017-12-06T09:51:53.970Z,6.31
2017-12-06T09:54:28.662Z,6.23
2017-12-06T09:57:03.234Z,6.36
2017-12-06T09:59:37.616Z,6.37
2017-12-06T10:02:12.078Z,6.38
2017-12-06T10:04:46.714Z,6.44
2017-12-06T10:07:21.823Z,6.64
2017-12-06T10:09:56.199Z,7.07
2017-12-06T10:12:30.590Z,6.96
2017-12-06T10:15:05.281Z,6.86
2017-12-06T10:17:40.765Z,7.51
2017-12-06T10:20:15.370Z,7.19
2017-12-06T10:22:49.926Z,6.90
2017-12-06T10:25:24.338Z,6.93
2017-12-06T10:27:58.405Z,7.22
2017-12-06T10:30:34.658Z,7.41
2017-12-06T10:33:09.521Z,7.44
2017-12-06T10:35:43.700Z,7.14
2017-12-06T10:38:19.506Z,7.32
2017-12-06T10:40:54.130Z,7.20
2017-12-06T10:43:28.578Z,6.76
2017-12-06T10:46:03.086Z,6.70
2017-12-06T10:48:37.577Z,6.80
2017-12-06T10:51:11.954Z,6.81
2017-12-06T10:53:46.807Z,6.69
2017-12-06T10:56:21.371Z,6.70
2017-12-06T10:58:55.889Z,6.94
2017-12-06T11:01:30.498Z,6.64
2017-12-06T11:04:05.012Z,6.67
2017-12-06T11:06:39.419Z,6.94
2017-12-06T11:09:13.902Z,6.73
2017-12-06T11:11:49.194Z,6.65
2017-12-06T11:14:24.394Z,6.68
2017-12-06T11:16:59.007Z,6.53
2017-12-06T11:19:34.210Z,6.55
2017-12-06T11:22:08.770Z,6.58
2017-12-06T11:24:43.381Z,6.59
2017-12-06T11:27:17.574Z,6.53
2017-12-06T11:29:51.973Z,6.53
2017-12-06T11:32:26.931Z,6.53
2017-12-06T11:35:01.395Z,6.48
2017-12-06T11:37:35.987Z,6.67
2017-12-06T11:40:12.458Z,6.69
2017-12-06T11:42:47.105Z,6.69
2017-12-06T11:45:22.386Z,6.68
2017-12-06T11:47:57.002Z,6.76
2017-12-06T11:50:31.385Z,6.87
2017-12-06T11:53:06.002Z,6.94
2017-12-06T11:55:40.456Z,6.69
2017-12-06T11:58:17.958Z,6.58
2017-12-06T12:00:52.146Z,6.82
2017-12-06T12:03:26.655Z,6.65
2017-12-06T12:06:01.168Z,6.88
2017-12-06T12:08:38.379Z,6.55
2017-12-06T12:11:13.544Z,6.69
2017-12-06T12:13:48.069Z,6.67
2017-12-06T12:16:22.959Z,6.79
2017-12-06T12:18:57.357Z,6.90
2017-12-06T12:21:31.983Z,6.92
2017-12-06T12:24:06.622Z,6.75
2017-12-06T12:26:41.001Z,7.11
2017-12-06T12:29:15.383Z,6.84
2017-12-06T12:31:49.878Z,6.57
2017-12-06T12:34:24.346Z,6.63
2017-12-06T12:36:58.539Z,6.91
2017-12-06T12:39:32.613Z,6.48
2017-12-06T12:42:06.695Z,6.70
2017-12-06T12:44:40.766Z,6.84
2017-12-06T12:47:14.858Z,6.85
2017-12-06T12:49:49.617Z,7.28
2017-12-06T12:52:23.741Z,7.09
2017-12-06T12:54:57.908Z,6.71
2017-12-06T12:57:32.362Z,6.70
2017-12-06T13:00:06.482Z,6.53
2017-12-06T13:02:40.638Z,6.40
2017-12-06T13:05:14.770Z,6.39
2017-12-06T13:07:48.850Z,6.58
2017-12-06T13:10:23.305Z,6.65
2017-12-06T13:12:57.530Z,6.64
2017-12-06T13:15:31.624Z,6.59
2017-12-06T13:18:06.536Z,6.59
2017-12-06T13:20:41.482Z,6.49
2017-12-06T13:23:16.689Z,6.37
2017-12-06T13:25:50.924Z,6.42
2017-12-06T13:28:25.178Z,6.38
2017-12-06T13:30:59.639Z,6.11
2017-12-06T13:33:33.850Z,6.11
2017-12-06T13:36:08.290Z,6.06
2017-12-06T13:38:42.635Z,6.04
2017-12-06T13:41:17.357Z,6.01
2017-12-06T13:43:51.585Z,5.92
2017-12-06T13:46:25.834Z,5.76
2017-12-06T13:48:59.973Z,5.71
2017-12-06T13:51:34.334Z,5.72
2017-12-06T13:54:08.602Z,5.68
2017-12-06T13:56:42.738Z,5.68
2017-12-06T13:59:17.353Z,5.76
2017-12-06T14:01:51.790Z,5.71
2017-12-06T14:04:25.958Z,5.68
2017-12-06T14:07:00.393Z,5.60
2017-12-06T14:09:34.482Z,5.55
2017-12-06T14:12:08.789Z,5.58
2017-12-06T14:14:43.365Z,5.55
2017-12-06T14:17:17.422Z,5.60
2017-12-06T14:19:52.042Z,5.49
2017-12-06T14:22:26.446Z,5.43
2017-12-06T14:25:00.708Z,5.39
2017-12-06T14:27:34.882Z,5.42
2017-12-06T14:30:10.372Z,5.39
2017-12-06T14:32:44.734Z,5.33
2017-12-06T14:35:18.751Z,5.29
2017-12-06T14:37:52.737Z,5.30
2017-12-06T14:40:27.920Z,5.28
2017-12-06T14:43:02.193Z,5.20
2017-12-06T14:45:36.667Z,5.16
2017-12-06T14:48:10.931Z,5.12
2017-12-06T14:50:45.118Z,5.11
2017-12-06T14:53:19.331Z,5.13
2017-12-06T14:55:53.547Z,5.07
2017-12-06T14:58:27.612Z,5.08
2017-12-06T15:01:02.005Z,5.07
2017-12-06T15:03:36.440Z,5.08
2017-12-06T15:06:10.866Z,5.04
2017-12-06T15:08:44.986Z,5.01
2017-12-06T15:11:19.222Z,4.98
2017-12-06T15:13:53.455Z,4.97
2017-12-06T15:16:27.568Z,4.97
2017-12-06T15:19:01.770Z,4.94
2017-12-06T15:21:36.131Z,4.92
2017-12-06T15:24:10.290Z,4.80
2017-12-06T15:26:44.367Z,4.90
2017-12-06T15:29:18.454Z,4.91
2017-12-06T15:31:52.606Z,4.92
2017-12-06T15:34:26.762Z,4.88
2017-12-06T15:37:01.273Z,4.86
2017-12-06T15:39:35.322Z,4.88
2017-12-06T15:42:09.381Z,4.85
2017-12-06T15:44:44.542Z,4.85
2017-12-06T15:47:19.142Z,4.82
2017-12-06T15:49:53.417Z,4.85
2017-12-06T15:52:27.681Z,4.83
2017-12-06T15:55:02.110Z,4.83
2017-12-06T15:57:36.214Z,4.77
2017-12-06T16:00:11.093Z,4.76
2017-12-06T16:02:46.074Z,4.75
2017-12-06T16:05:20.277Z,4.79
2017-12-06T16:07:54.790Z,4.80
2017-12-06T16:10:28.849Z,4.61
2017-12-06T16:13:03.238Z,4.69
2017-12-06T16:15:37.552Z,4.81
2017-12-06T16:18:11.654Z,4.61
2017-12-06T16:20:46.038Z,4.75
2017-12-06T16:23:20.618Z,4.74
2017-12-06T16:25:54.780Z,4.75
2017-12-06T16:28:28.867Z,4.76
2017-12-06T16:31:03.422Z,4.75
2017-12-06T16:33:37.426Z,4.74
2017-12-06T16:36:22.935Z,4.70
2017-12-06T16:38:57.151Z,4.70
2017-12-06T16:41:31.606Z,4.70
2017-12-06T16:44:05.839Z,4.66
2017-12-06T16:46:40.046Z,4.69
2017-12-06T16:49:14.528Z,4.69
2017-12-06T16:51:48.974Z,4.67
2017-12-06T16:54:23.546Z,4.69
2017-12-06T16:56:58.041Z,4.70
2017-12-06T16:59:32.230Z,4.70
2017-12-06T17:02:06.889Z,4.72
2017-12-06T17:04:41.674Z,4.68
2017-12-06T17:07:16.227Z,4.68
2017-12-06T17:09:50.295Z,4.71
2017-12-06T17:12:24.358Z,4.68
2017-12-06T17:14:59.159Z,4.70
2017-12-06T17:17:33.606Z,4.55
2017-12-06T17:20:07.979Z,4.69
2017-12-06T17:22:42.174Z,4.69
2017-12-06T17:25:17.457Z,4.64
2017-12-06T17:27:51.590Z,4.55
2017-12-06T17:30:37.170Z,4.64
2017-12-06T17:33:11.372Z,4.64
2017-12-06T17:35:45.522Z,4.63
2017-12-06T17:38:20.525Z,4.64
2017-12-06T17:40:54.765Z,4.63
2017-12-06T17:43:28.949Z,4.64
2017-12-06T17:46:02.806Z,4.62
2017-12-06T17:48:36.940Z,4.51
2017-12-06T17:51:10.961Z,4.61
2017-12-06T17:53:45.031Z,4.56
2017-12-06T17:56:19.094Z,4.57
2017-12-06T17:58:53.309Z,4.61
2017-12-06T18:01:27.339Z,4.55
2017-12-06T18:04:01.543Z,4.54
2017-12-06T18:06:36.409Z,4.53
2017-12-06T18:09:10.958Z,4.56
2017-12-06T18:11:45.053Z,4.51
2017-12-06T18:14:19.150Z,4.48
2017-12-06T18:16:53.119Z,4.46
2017-12-06T18:19:27.353Z,4.50
2017-12-06T18:22:01.456Z,4.46
2017-12-06T18:24:35.898Z,4.43
2017-12-06T18:27:10.022Z,4.42
2017-12-06T18:29:44.482Z,4.44
2017-12-06T18:32:18.594Z,4.35
2017-12-06T18:34:53.214Z,4.41
2017-12-06T18:37:27.886Z,4.43
2017-12-06T18:40:01.969Z,4.38
2017-12-06T18:42:36.145Z,4.36
2017-12-06T18:45:12.419Z,4.35
2017-12-06T18:47:47.002Z,4.13
2017-12-06T18:50:21.546Z,4.34
2017-12-06T18:52:56.035Z,4.35
2017-12-06T18:55:30.270Z,4.36
2017-12-06T18:58:04.922Z,4.31
2017-12-06T19:00:39.119Z,4.34
2017-12-06T19:03:13.691Z,4.30
2017-12-06T19:05:48.150Z,4.33
2017-12-06T19:08:22.730Z,4.34
2017-12-06T19:10:57.122Z,4.33
2017-12-06T19:13:31.623Z,4.32
2017-12-06T19:16:06.007Z,4.19
2017-12-06T19:18:40.586Z,4.28
2017-12-06T19:21:15.000Z,4.24
2017-12-06T19:23:49.486Z,4.26
2017-12-06T19:26:23.916Z,4.26
2017-12-06T19:28:59.150Z,4.26
2017-12-06T19:31:34.297Z,4.30
2017-12-06T19:34:08.746Z,4.24
2017-12-06T19:36:43.164Z,4.22
2017-12-06T19:39:17.687Z,4.22
2017-12-06T19:41:52.258Z,4.19
2017-12-06T19:44:26.803Z,4.20
2017-12-06T19:47:02.021Z,4.19
2017-12-06T19:49:36.574Z,4.17
2017-12-06T19:52:11.810Z,4.15
2017-12-06T19:54:46.406Z,4.13
2017-12-06T19:57:20.847Z,4.12
2017-12-06T19:59:55.318Z,4.07
2017-12-06T20:02:29.705Z,4.06
2017-12-06T20:05:10.114Z,4.03
2017-12-06T20:07:44.650Z,4.02
2017-12-06T20:10:19.451Z,3.98
2017-12-06T20:12:53.964Z,3.99
2017-12-06T20:15:28.728Z,4.02
2017-12-06T20:18:03.849Z,3.98
2017-12-06T20:20:38.289Z,4.00
2017-12-06T20:23:12.837Z,3.97
2017-12-06T20:25:48.243Z,4.01
2017-12-06T20:28:22.837Z,3.84
2017-12-06T20:30:57.254Z,3.96
2017-12-06T20:33:31.730Z,3.94
2017-12-06T20:36:07.265Z,3.95
2017-12-06T20:38:43.452Z,3.91
2017-12-06T20:41:18.091Z,3.93
2017-12-06T20:43:52.505Z,3.91
2017-12-06T20:46:28.065Z,3.93
2017-12-06T20:49:03.190Z,3.90
2017-12-06T20:51:38.002Z,3.88
2017-12-06T20:54:12.570Z,3.85
2017-12-06T20:56:46.895Z,3.67
2017-12-06T20:59:21.658Z,3.76
2017-12-06T21:01:56.097Z,3.85
2017-12-06T21:04:30.577Z,3.82
2017-12-06T21:07:04.977Z,3.79
2017-12-06T21:09:39.346Z,3.83
2017-12-06T21:12:13.811Z,3.86
2017-12-06T21:14:48.045Z,3.86
2017-12-06T21:17:22.409Z,3.85
2017-12-06T21:19:56.998Z,3.86
2017-12-06T21:22:31.432Z,3.85
2017-12-06T21:25:09.737Z,3.66
2017-12-06T21:27:44.935Z,3.86
2017-12-06T21:30:19.366Z,3.81
2017-12-06T21:32:53.886Z,3.79
2017-12-06T21:35:28.293Z,3.79
2017-12-06T21:38:02.909Z,3.78
2017-12-06T21:40:37.485Z,3.79
2017-12-06T21:43:12.062Z,3.72
2017-12-06T21:45:46.477Z,3.74
2017-12-06T21:48:20.889Z,3.72
2017-12-06T21:50:55.302Z,3.67
2017-12-06T21:53:29.795Z,3.67
2017-12-06T21:56:04.165Z,3.66
2017-12-06T21:58:38.799Z,3.65
2017-12-06T22:01:13.758Z,3.60
2017-12-06T22:03:48.207Z,3.67
2017-12-06T22:06:22.434Z,3.65
2017-12-06T22:08:57.427Z,3.63
2017-12-06T22:11:32.026Z,3.57
2017-12-06T22:14:07.252Z,3.50
2017-12-06T22:16:41.674Z,3.51
2017-12-06T22:19:16.233Z,3.46
2017-12-06T22:21:50.874Z,3.48
2017-12-06T22:24:25.422Z,3.43
2017-12-06T22:26:59.974Z,3.47
2017-12-06T22:29:34.456Z,3.50
2017-12-06T22:32:09.079Z,3.44
2017-12-06T22:34:44.035Z,3.42
2017-12-06T22:37:18.486Z,3.39
2017-12-06T22:39:52.771Z,3.37
2017-12-06T22:42:27.354Z,3.39
2017-12-06T22:45:12.860Z,3.38
2017-12-06T22:47:47.380Z,3.39
2017-12-06T22:50:21.799Z,3.40
2017-12-06T22:52:56.343Z,3.44
2017-12-06T22:55:30.717Z,3.39
2017-12-06T22:58:04.936Z,3.39
2017-12-06T23:00:39.294Z,3.37
2017-12-06T23:03:13.497Z,3.36
2017-12-06T23:05:47.880Z,3.30
2017-12-06T23:08:22.353Z,3.26
2017-12-06T23:10:56.853Z,3.28
2017-12-06T23:13:31.344Z,3.26
2017-12-06T23:16:05.710Z,3.22
2017-12-06T23:18:40.078Z,3.19
2017-12-06T23:21:14.436Z,3.22
2017-12-06T23:23:48.872Z,3.22
2017-12-06T23:26:23.302Z,3.21
2017-12-06T23:28:57.803Z,3.31
2017-12-06T23:31:32.322Z,3.24
2017-12-06T23:34:06.734Z,3.35
2017-12-06T23:36:41.261Z,3.33
2017-12-06T23:39:16.259Z,3.29
2017-12-06T23:41:50.518Z,3.25
2017-12-06T23:44:24.878Z,3.22
2017-12-06T23:47:00.218Z,3.16
2017-12-06T23:49:34.570Z,3.11
2017-12-06T23:52:09.113Z,3.12
2017-12-06T23:54:43.710Z,3.13
2017-12-06T23:57:18.279Z,3.05
2017-12-06T23:59:52.807Z,3.04
